createdAt,value
2019-03-19T00:01:42.760Z,72.99
2019-03-19T00:04:08.977Z,72.97
2019-03-19T00:06:35.221Z,73.00
2019-03-19T00:09:01.391Z,72.97
2019-03-19T00:11:27.671Z,72.99
2019-03-19T00:13:53.842Z,72.92
2019-03-19T00:16:20.226Z,72.79
2019-03-19T00:18:46.477Z,72.73
2019-03-19T00:21:12.694Z,72.68
2019-03-19T00:23:38.907Z,72.67
2019-03-19T00:26:05.251Z,72.72
2019-03-19T00:28:31.548Z,72.79
2019-03-19T00:30:57.833Z,72.93
2019-03-19T00:33:24.515Z,73.02
2019-03-19T00:35:50.699Z,73.09
2019-03-19T00:38:16.876Z,73.14
2019-03-19T00:40:43.038Z,73.28
2019-03-19T00:43:09.260Z,73.40
2019-03-19T00:45:35.471Z,73.25
2019-03-19T00:48:01.687Z,73.19
2019-03-19T00:50:27.905Z,73.06
2019-03-19T00:52:54.191Z,73.00
2019-03-19T00:55:20.437Z,72.93
2019-03-19T00:57:46.669Z,72.81
2019-03-19T01:00:16.688Z,72.83
2019-03-19T01:02:42.925Z,72.86
2019-03-19T01:05:09.338Z,72.67
2019-03-19T01:07:35.624Z,72.64
2019-03-19T01:10:03.396Z,72.60
2019-03-19T01:12:29.555Z,72.58
2019-03-19T01:14:55.822Z,72.73
2019-03-19T01:17:21.924Z,72.77
2019-03-19T01:19:48.095Z,72.89
2019-03-19T01:22:14.284Z,72.94
2019-03-19T01:24:40.472Z,73.09
2019-03-19T01:27:06.679Z,73.09
2019-03-19T01:29:32.821Z,73.27
2019-03-19T01:31:59.080Z,73.29
2019-03-19T01:34:25.297Z,73.32
2019-03-19T01:36:51.536Z,73.40
2019-03-19T01:39:17.632Z,73.51
2019-03-19T01:41:43.860Z,73.48
2019-03-19T01:44:10.012Z,73.42
2019-03-19T01:46:36.232Z,73.48
2019-03-19T01:49:02.464Z,73.54
2019-03-19T01:51:28.670Z,73.71
2019-03-19T01:53:54.830Z,73.74
2019-03-19T01:56:21.092Z,73.80
2019-03-19T01:58:47.472Z,73.95
2019-03-19T02:01:13.676Z,73.98
2019-03-19T02:03:39.870Z,74.08
2019-03-19T02:06:06.123Z,74.11
2019-03-19T02:08:32.439Z,74.29
2019-03-19T02:10:58.679Z,74.27
2019-03-19T02:13:24.885Z,74.40
2019-03-19T02:15:51.009Z,74.41
2019-03-19T02:18:17.249Z,74.54
2019-03-19T02:20:43.332Z,74.75
2019-03-19T02:23:09.511Z,74.85
2019-03-19T02:25:35.598Z,75.39
2019-03-19T02:28:02.127Z,75.10
2019-03-19T02:30:28.380Z,75.29
2019-03-19T02:32:54.552Z,75.28
2019-03-19T02:35:20.721Z,75.41
2019-03-19T02:37:47.029Z,75.48
2019-03-19T02:40:14.493Z,75.69
2019-03-19T02:42:40.743Z,75.59
2019-03-19T02:45:09.573Z,75.66
2019-03-19T02:47:35.803Z,75.75
2019-03-19T02:50:04.878Z,75.95
2019-03-19T02:52:31.142Z,75.86
2019-03-19T02:54:57.375Z,75.98
2019-03-19T02:57:23.802Z,75.98
2019-03-19T02:59:50.030Z,75.98
2019-03-19T03:02:16.214Z,75.99
2019-03-19T03:04:42.475Z,76.18
2019-03-19T03:07:08.684Z,76.21
2019-03-19T03:09:34.801Z,76.21
2019-03-19T03:12:01.155Z,76.43
2019-03-19T03:14:27.492Z,76.39
2019-03-19T03:16:53.755Z,76.42
2019-03-19T03:19:20.019Z,76.47
2019-03-19T03:21:46.294Z,76.63
2019-03-19T03:24:12.510Z,76.75
2019-03-19T03:26:47.648Z,77.04
2019-03-19T03:29:06.756Z,77.09
2019-03-19T03:31:32.928Z,77.01
2019-03-19T03:33:59.168Z,77.13
2019-03-19T03:36:25.277Z,77.18
2019-03-19T03:38:51.491Z,77.19
2019-03-19T03:41:25.414Z,77.43
2019-03-19T03:43:51.504Z,77.69
2019-03-19T03:46:17.814Z,78.08
2019-03-19T03:48:43.962Z,78.28
2019-03-19T03:51:10.228Z,78.20
2019-03-19T03:53:36.384Z,78.30
2019-03-19T03:56:02.869Z,78.49
2019-03-19T03:58:28.966Z,78.61
2019-03-19T04:00:55.384Z,78.97
2019-03-19T04:03:21.525Z,79.03
2019-03-19T04:05:47.771Z,79.16
2019-03-19T04:08:14.049Z,78.79
2019-03-19T04:10:40.332Z,79.19
2019-03-19T04:13:06.613Z,79.28
2019-03-19T04:15:32.765Z,79.08
2019-03-19T04:17:58.948Z,79.21
2019-03-19T04:20:25.087Z,79.29
2019-03-19T04:22:51.311Z,79.31
2019-03-19T04:25:17.821Z,79.39
2019-03-19T04:27:44.402Z,79.36
2019-03-19T04:30:16.090Z,78.85
2019-03-19T04:32:42.343Z,78.80
2019-03-19T04:35:08.951Z,78.67
2019-03-19T04:37:35.165Z,78.97
2019-03-19T04:40:01.587Z,78.78
2019-03-19T04:42:27.694Z,78.56
2019-03-19T04:44:53.898Z,78.52
2019-03-19T04:47:20.000Z,78.55
2019-03-19T04:49:46.198Z,78.75
2019-03-19T04:52:12.370Z,78.74
2019-03-19T04:54:38.621Z,79.47
2019-03-19T04:57:04.951Z,79.62
2019-03-19T04:59:31.122Z,79.57
2019-03-19T05:01:57.395Z,79.70
2019-03-19T05:04:23.679Z,79.56
2019-03-19T05:06:49.918Z,79.26
2019-03-19T05:09:16.053Z,79.40
2019-03-19T05:11:42.315Z,79.18
2019-03-19T05:14:08.451Z,79.39
2019-03-19T05:16:34.677Z,79.07
2019-03-19T05:19:01.883Z,79.03
2019-03-19T05:21:28.092Z,78.62
2019-03-19T05:23:54.395Z,78.28
2019-03-19T05:26:20.621Z,78.03
2019-03-19T05:28:46.827Z,77.83
2019-03-19T05:31:13.088Z,77.79
2019-03-19T05:33:39.367Z,77.58
2019-03-19T05:36:05.539Z,77.61
2019-03-19T05:38:31.788Z,77.61
2019-03-19T05:40:58.058Z,77.63
2019-03-19T05:43:24.629Z,77.41
2019-03-19T05:45:50.872Z,77.43
2019-03-19T05:48:17.091Z,77.32
2019-03-19T05:50:43.253Z,77.15
2019-03-19T05:53:09.513Z,77.25
2019-03-19T05:55:35.630Z,77.19
2019-03-19T05:58:02.048Z,76.97
2019-03-19T06:00:30.223Z,76.93
2019-03-19T06:02:56.621Z,76.80
2019-03-19T06:05:22.854Z,76.61
2019-03-19T06:07:49.040Z,76.67
2019-03-19T06:10:15.359Z,76.77
2019-03-19T06:12:41.633Z,76.59
2019-03-19T06:15:12.663Z,76.46
2019-03-19T06:17:39.947Z,76.44
2019-03-19T06:20:11.973Z,76.64
2019-03-19T06:22:38.253Z,76.62
2019-03-19T06:25:06.078Z,76.86
2019-03-19T06:27:32.286Z,76.76
2019-03-19T06:29:58.463Z,76.97
2019-03-19T06:32:24.723Z,76.93
2019-03-19T06:34:50.894Z,76.94
2019-03-19T06:37:17.196Z,76.94
2019-03-19T06:39:43.376Z,76.94
2019-03-19T06:42:09.528Z,77.05
2019-03-19T06:44:35.685Z,77.04
2019-03-19T06:47:01.942Z,76.73
2019-03-19T06:49:28.152Z,76.72
2019-03-19T06:51:54.461Z,76.68
2019-03-19T06:54:20.567Z,76.70
2019-03-19T06:56:46.802Z,76.72
2019-03-19T06:59:12.915Z,76.65
2019-03-19T07:01:39.148Z,76.62
2019-03-19T07:04:05.263Z,76.62
2019-03-19T07:06:31.494Z,76.52
2019-03-19T07:08:57.591Z,76.32
2019-03-19T07:11:24.211Z,76.04
2019-03-19T07:13:50.320Z,75.82
2019-03-19T07:16:16.635Z,75.28
2019-03-19T07:18:42.833Z,75.00
2019-03-19T07:21:09.022Z,74.52
2019-03-19T07:23:35.258Z,74.07
2019-03-19T07:26:01.574Z,73.96
2019-03-19T07:28:27.744Z,73.54
2019-03-19T07:30:54.001Z,73.40
2019-03-19T07:33:20.168Z,73.04
2019-03-19T07:35:46.331Z,72.43
2019-03-19T07:38:12.514Z,72.41
2019-03-19T07:40:38.697Z,72.15
2019-03-19T07:43:04.857Z,72.28
2019-03-19T07:45:31.261Z,72.39
2019-03-19T07:47:57.408Z,72.50
2019-03-19T07:50:23.974Z,72.55
2019-03-19T07:52:50.251Z,72.34
2019-03-19T07:55:16.440Z,71.91
2019-03-19T07:57:42.667Z,71.18
2019-03-19T08:00:17.154Z,71.06
2019-03-19T08:02:43.703Z,70.92
2019-03-19T08:05:10.183Z,70.88
2019-03-19T08:07:36.361Z,70.32
2019-03-19T08:10:11.522Z,70.73
2019-03-19T08:12:37.779Z,70.47
2019-03-19T08:15:10.207Z,70.24
2019-03-19T08:17:36.499Z,70.11
2019-03-19T08:20:05.784Z,70.54
2019-03-19T08:22:32.002Z,70.29
2019-03-19T08:24:58.268Z,70.03
2019-03-19T08:27:24.639Z,69.66
2019-03-19T08:29:50.870Z,69.37
2019-03-19T08:32:17.029Z,68.85
2019-03-19T08:34:43.307Z,69.34
2019-03-19T08:37:09.555Z,69.15
2019-03-19T08:39:36.661Z,68.81
2019-03-19T08:42:03.146Z,68.42
2019-03-19T08:44:29.322Z,67.50
2019-03-19T08:46:55.583Z,67.48
2019-03-19T08:49:22.410Z,67.39
2019-03-19T08:51:48.628Z,67.39
2019-03-19T08:54:14.864Z,67.70
2019-03-19T08:56:42.136Z,67.05
2019-03-19T08:59:08.364Z,66.28
2019-03-19T09:01:34.534Z,65.89
2019-03-19T09:04:00.763Z,65.11
2019-03-19T09:06:26.878Z,65.66
2019-03-19T09:08:53.871Z,65.96
2019-03-19T09:11:20.021Z,66.10
2019-03-19T09:13:46.385Z,66.54
2019-03-19T09:16:12.780Z,66.76
2019-03-19T09:18:39.006Z,67.00
2019-03-19T09:21:05.163Z,67.30
2019-03-19T09:23:33.257Z,67.57
2019-03-19T09:25:59.395Z,67.60
2019-03-19T09:28:25.646Z,67.26
2019-03-19T09:30:51.739Z,67.30
2019-03-19T09:33:18.002Z,66.83
2019-03-19T09:35:44.270Z,66.38
2019-03-19T09:38:10.493Z,66.67
2019-03-19T09:40:36.654Z,65.30
2019-03-19T09:43:03.178Z,64.75
2019-03-19T09:45:29.297Z,64.03
2019-03-19T09:47:55.544Z,64.55
2019-03-19T09:50:25.994Z,64.16
2019-03-19T09:52:52.241Z,63.99
2019-03-19T09:55:18.587Z,64.93
2019-03-19T09:57:44.855Z,65.53
2019-03-19T10:00:19.459Z,65.75
2019-03-19T10:02:45.834Z,65.72
2019-03-19T10:05:12.223Z,64.55
2019-03-19T10:07:38.467Z,64.78
2019-03-19T10:10:10.877Z,64.01
2019-03-19T10:12:38.064Z,63.87
2019-03-19T10:15:06.723Z,63.25
2019-03-19T10:17:32.967Z,63.34
2019-03-19T10:19:59.149Z,63.44
2019-03-19T10:22:25.322Z,63.50
2019-03-19T10:24:51.502Z,63.15
2019-03-19T10:27:19.579Z,61.36
2019-03-19T10:29:45.722Z,60.07
2019-03-19T10:32:11.968Z,59.02
2019-03-19T10:34:38.094Z,57.65
2019-03-19T10:37:04.325Z,55.57
2019-03-19T10:39:30.427Z,52.70
2019-03-19T10:41:56.649Z,52.00
2019-03-19T10:44:22.751Z,51.25
2019-03-19T10:46:48.981Z,47.99
2019-03-19T10:49:15.111Z,47.78
2019-03-19T10:51:41.358Z,46.68
2019-03-19T10:54:07.555Z,45.30
2019-03-19T10:56:33.786Z,44.31
2019-03-19T10:58:59.952Z,42.83
2019-03-19T11:01:26.237Z,43.17
2019-03-19T11:03:52.462Z,43.56
2019-03-19T11:06:18.620Z,43.72
2019-03-19T11:08:44.887Z,44.39
2019-03-19T11:11:11.084Z,43.39
2019-03-19T11:13:37.219Z,43.57
2019-03-19T11:16:03.652Z,41.23
2019-03-19T11:18:29.736Z,40.56
2019-03-19T11:20:55.939Z,41.53
2019-03-19T11:23:23.232Z,42.38
2019-03-19T11:25:54.531Z,44.35
2019-03-19T11:28:17.752Z,44.72
2019-03-19T11:30:43.931Z,45.28
2019-03-19T11:33:10.188Z,46.55
2019-03-19T11:35:36.816Z,46.43
2019-03-19T11:38:04.327Z,46.73
2019-03-19T11:40:30.492Z,46.51
2019-03-19T11:42:56.666Z,46.19
2019-03-19T11:45:23.214Z,46.00
2019-03-19T11:47:49.890Z,46.88
2019-03-19T11:50:24.583Z,46.84
2019-03-19T11:52:51.511Z,47.26
2019-03-19T11:55:17.874Z,48.20
2019-03-19T11:57:44.241Z,48.87
2019-03-19T12:00:29.649Z,49.18
2019-03-19T12:02:56.176Z,49.61
2019-03-19T12:05:22.406Z,49.46
2019-03-19T12:07:48.677Z,49.74
2019-03-19T12:10:14.777Z,50.09
2019-03-19T12:12:42.101Z,50.57
2019-03-19T12:15:10.174Z,51.12
2019-03-19T12:17:36.516Z,51.59
2019-03-19T12:20:05.232Z,52.21
2019-03-19T12:22:31.446Z,52.87
2019-03-19T12:24:57.624Z,53.41
2019-03-19T12:27:24.297Z,54.04
2019-03-19T12:29:50.575Z,54.49
2019-03-19T12:32:16.838Z,54.73
2019-03-19T12:34:43.091Z,55.01
2019-03-19T12:37:09.307Z,55.17
2019-03-19T12:39:35.691Z,55.18
2019-03-19T12:42:02.114Z,55.33
2019-03-19T12:44:28.422Z,55.00
2019-03-19T12:46:54.786Z,53.78
2019-03-19T12:49:21.007Z,54.00
2019-03-19T12:51:47.167Z,54.04
2019-03-19T12:54:13.443Z,53.67
2019-03-19T12:56:39.668Z,53.33
2019-03-19T12:59:06.886Z,53.80
2019-03-19T13:01:33.195Z,54.46
2019-03-19T13:03:59.516Z,54.80
2019-03-19T13:06:25.732Z,55.07
2019-03-19T13:08:51.929Z,55.39
2019-03-19T13:11:18.220Z,55.26
2019-03-19T13:13:44.485Z,55.02
2019-03-19T13:16:10.735Z,51.75
2019-03-19T13:18:36.836Z,49.94
2019-03-19T13:21:03.145Z,46.64
2019-03-19T13:23:29.367Z,43.38
2019-03-19T13:25:56.774Z,38.66
2019-03-19T13:28:23.177Z,36.14
2019-03-19T13:30:49.531Z,34.89
2019-03-19T13:33:16.856Z,34.72
2019-03-19T13:35:43.032Z,36.00
2019-03-19T13:38:09.248Z,35.86
2019-03-19T13:40:35.418Z,33.68
2019-03-19T13:43:01.798Z,32.71
2019-03-19T13:45:27.952Z,31.34
2019-03-19T13:47:54.184Z,30.65
2019-03-19T13:50:21.520Z,30.36
2019-03-19T13:52:47.767Z,30.31
2019-03-19T13:55:16.741Z,32.34
2019-03-19T13:57:44.144Z,33.91
2019-03-19T14:00:14.700Z,35.53
2019-03-19T14:02:40.864Z,37.70
2019-03-19T14:05:09.694Z,39.02
2019-03-19T14:07:36.021Z,40.34
2019-03-19T14:10:04.872Z,41.26
2019-03-19T14:12:31.111Z,42.42
2019-03-19T14:14:57.200Z,43.54
2019-03-19T14:17:23.413Z,44.50
2019-03-19T14:19:51.316Z,45.59
2019-03-19T14:22:17.638Z,46.23
2019-03-19T14:24:43.799Z,46.85
2019-03-19T14:27:10.027Z,47.50
2019-03-19T14:29:36.145Z,47.94
2019-03-19T14:32:04.007Z,48.24
2019-03-19T14:34:30.253Z,48.74
2019-03-19T14:36:56.581Z,49.11
2019-03-19T14:39:22.988Z,49.41
2019-03-19T14:41:49.184Z,50.04
2019-03-19T14:44:15.438Z,50.44
2019-03-19T14:46:41.671Z,50.74
2019-03-19T14:49:08.072Z,50.84
2019-03-19T14:51:35.425Z,51.11
2019-03-19T14:54:01.594Z,51.52
2019-03-19T14:56:27.953Z,52.29
2019-03-19T14:58:54.281Z,52.73
2019-03-19T15:01:20.411Z,53.10
2019-03-19T15:03:46.636Z,53.53
2019-03-19T15:06:12.802Z,53.71
2019-03-19T15:08:39.079Z,54.19
2019-03-19T15:11:05.290Z,54.94
2019-03-19T15:13:32.506Z,55.10
2019-03-19T15:15:58.709Z,55.50
2019-03-19T15:18:25.017Z,55.34
2019-03-19T15:20:53.010Z,55.52
2019-03-19T15:23:19.334Z,55.70
2019-03-19T15:25:45.550Z,55.54
2019-03-19T15:28:11.653Z,55.63
2019-03-19T15:30:37.957Z,55.27
2019-03-19T15:33:04.261Z,55.13
2019-03-19T15:35:30.575Z,55.30
2019-03-19T15:37:56.833Z,55.27
2019-03-19T15:40:23.004Z,55.34
2019-03-19T15:42:49.287Z,55.18
2019-03-19T15:45:17.219Z,55.06
2019-03-19T15:47:44.321Z,54.99
2019-03-19T15:50:14.545Z,55.07
2019-03-19T15:52:40.798Z,55.36
2019-03-19T15:55:08.765Z,55.33
2019-03-19T15:57:35.039Z,55.56
2019-03-19T16:00:01.247Z,55.59
2019-03-19T16:02:27.457Z,55.58
2019-03-19T16:04:53.590Z,55.76
2019-03-19T16:07:19.810Z,55.81
2019-03-19T16:09:45.913Z,56.00
2019-03-19T16:12:12.360Z,56.21
2019-03-19T16:14:38.571Z,56.27
2019-03-19T16:17:04.783Z,56.21
2019-03-19T16:19:31.072Z,56.38
2019-03-19T16:21:57.229Z,56.29
2019-03-19T16:24:24.273Z,56.68
2019-03-19T16:26:51.595Z,56.54
2019-03-19T16:29:17.871Z,56.39
2019-03-19T16:31:50.816Z,56.26
2019-03-19T16:34:12.143Z,56.28
2019-03-19T16:36:38.282Z,56.43
2019-03-19T16:39:05.235Z,56.52
2019-03-19T16:41:31.375Z,56.28
2019-03-19T16:43:57.626Z,55.81
2019-03-19T16:46:23.999Z,55.74
2019-03-19T16:48:50.247Z,55.61
2019-03-19T16:51:16.405Z,55.46
2019-03-19T16:53:42.615Z,55.33
2019-03-19T16:56:09.795Z,55.25
2019-03-19T16:58:36.021Z,55.12
2019-03-19T17:01:02.174Z,55.05
2019-03-19T17:03:28.339Z,55.18
2019-03-19T17:05:54.526Z,55.37
2019-03-19T17:08:20.773Z,55.37
2019-03-19T17:10:47.847Z,55.36
2019-03-19T17:13:14.049Z,55.55
2019-03-19T17:15:40.280Z,55.71
2019-03-19T17:18:06.717Z,55.74
2019-03-19T17:20:33.094Z,55.81
2019-03-19T17:22:59.409Z,55.97
2019-03-19T17:25:26.138Z,56.12
2019-03-19T17:27:52.662Z,56.32
2019-03-19T17:30:24.582Z,56.36
2019-03-19T17:32:51.033Z,56.49
2019-03-19T17:35:17.442Z,56.69
2019-03-19T17:37:43.657Z,56.90
2019-03-19T17:40:11.376Z,56.95
2019-03-19T17:42:37.499Z,56.96
2019-03-19T17:45:06.490Z,57.13
2019-03-19T17:47:32.660Z,57.12
2019-03-19T17:49:58.937Z,57.22
2019-03-19T17:52:25.244Z,57.26
2019-03-19T17:54:51.457Z,57.36
2019-03-19T17:57:17.788Z,57.17
2019-03-19T17:59:44.099Z,57.49
2019-03-19T18:02:10.270Z,57.67
2019-03-19T18:04:36.793Z,57.98
2019-03-19T18:07:03.219Z,57.92
2019-03-19T18:09:29.315Z,57.96
2019-03-19T18:11:55.786Z,58.04
2019-03-19T18:14:24.951Z,58.00
2019-03-19T18:16:51.298Z,58.56
2019-03-19T18:19:17.457Z,58.45
2019-03-19T18:21:43.728Z,58.64
2019-03-19T18:24:09.900Z,59.10
2019-03-19T18:26:36.181Z,59.27
2019-03-19T18:29:02.587Z,58.69
2019-03-19T18:31:28.934Z,58.66
2019-03-19T18:33:55.057Z,58.83
2019-03-19T18:36:21.280Z,58.87
2019-03-19T18:38:47.391Z,58.88
2019-03-19T18:41:13.702Z,58.97
2019-03-19T18:43:39.810Z,59.08
2019-03-19T18:46:06.051Z,59.16
2019-03-19T18:48:32.319Z,59.24
2019-03-19T18:50:58.556Z,59.24
2019-03-19T18:53:25.051Z,59.13
2019-03-19T18:55:51.230Z,59.27
2019-03-19T18:58:17.397Z,59.62
2019-03-19T19:00:43.596Z,59.27
2019-03-19T19:03:09.802Z,59.38
2019-03-19T19:05:36.072Z,59.83
2019-03-19T19:08:02.187Z,60.22
2019-03-19T19:10:28.399Z,59.95
2019-03-19T19:12:54.556Z,60.02
2019-03-19T19:15:24.214Z,59.87
2019-03-19T19:17:50.724Z,59.90
2019-03-19T19:20:17.691Z,59.89
2019-03-19T19:22:44.011Z,60.28
2019-03-19T19:25:19.178Z,60.36
2019-03-19T19:27:45.327Z,60.48
2019-03-19T19:30:18.212Z,60.56
2019-03-19T19:32:44.337Z,60.51
2019-03-19T19:35:10.676Z,60.44
2019-03-19T19:37:36.905Z,60.76
2019-03-19T19:40:09.995Z,60.90
2019-03-19T19:42:36.098Z,61.23
2019-03-19T19:45:03.241Z,61.27
2019-03-19T19:47:29.503Z,61.47
2019-03-19T19:49:55.731Z,61.44
2019-03-19T19:52:21.861Z,61.73
2019-03-19T19:54:48.479Z,61.84
2019-03-19T19:57:14.681Z,61.82
2019-03-19T19:59:40.895Z,61.86
2019-03-19T20:02:07.161Z,61.87
2019-03-19T20:04:33.344Z,61.64
2019-03-19T20:06:59.492Z,61.73
2019-03-19T20:09:25.667Z,61.80
2019-03-19T20:11:51.839Z,61.95
2019-03-19T20:14:18.042Z,61.93
2019-03-19T20:16:44.343Z,61.99
2019-03-19T20:19:11.292Z,61.77
2019-03-19T20:21:37.647Z,61.84
2019-03-19T20:24:03.871Z,62.08
2019-03-19T20:26:30.185Z,62.07
2019-03-19T20:28:56.306Z,62.04
2019-03-19T20:31:22.522Z,61.90
2019-03-19T20:33:48.631Z,61.85
2019-03-19T20:36:14.830Z,61.89
2019-03-19T20:38:41.089Z,61.91
2019-03-19T20:41:07.368Z,61.72
2019-03-19T20:43:33.548Z,61.82
2019-03-19T20:45:59.765Z,61.94
2019-03-19T20:48:25.986Z,61.93
2019-03-19T20:50:52.603Z,62.03
2019-03-19T20:53:18.907Z,62.13
2019-03-19T20:55:45.267Z,62.03
2019-03-19T20:58:11.492Z,61.80
2019-03-19T21:00:37.709Z,62.16
2019-03-19T21:03:03.982Z,62.31
2019-03-19T21:05:30.234Z,62.26
2019-03-19T21:07:56.569Z,62.13
2019-03-19T21:10:23.778Z,62.36
2019-03-19T21:12:50.183Z,62.47
2019-03-19T21:15:20.156Z,62.67
2019-03-19T21:17:47.130Z,62.85
2019-03-19T21:20:14.426Z,62.91
2019-03-19T21:22:40.768Z,62.92
2019-03-19T21:25:07.089Z,62.74
2019-03-19T21:27:33.397Z,62.62
2019-03-19T21:29:59.500Z,62.75
2019-03-19T21:32:27.070Z,62.79
2019-03-19T21:34:53.237Z,62.70
2019-03-19T21:37:19.475Z,62.72
2019-03-19T21:39:45.695Z,62.79
2019-03-19T21:42:12.107Z,62.92
2019-03-19T21:44:38.224Z,63.09
2019-03-19T21:47:04.416Z,63.12
2019-03-19T21:49:30.528Z,63.13
2019-03-19T21:51:56.742Z,63.26
2019-03-19T21:54:22.903Z,63.18
2019-03-19T21:56:49.240Z,63.23
2019-03-19T21:59:15.648Z,63.67
2019-03-19T22:01:41.880Z,63.67
2019-03-19T22:04:08.000Z,63.75
2019-03-19T22:06:34.327Z,63.80
2019-03-19T22:09:00.477Z,63.71
2019-03-19T22:11:26.745Z,63.67
2019-03-19T22:13:52.893Z,63.75
2019-03-19T22:16:19.003Z,63.88
2019-03-19T22:18:45.220Z,63.94
2019-03-19T22:21:11.417Z,64.20
2019-03-19T22:23:37.754Z,64.45
2019-03-19T22:26:03.962Z,64.38
2019-03-19T22:28:30.165Z,64.26
2019-03-19T22:30:56.312Z,64.43
2019-03-19T22:33:23.285Z,64.69
2019-03-19T22:35:49.593Z,65.13
2019-03-19T22:38:15.856Z,64.73
2019-03-19T22:40:42.113Z,64.65
2019-03-19T22:43:08.328Z,64.71
2019-03-19T22:45:34.437Z,65.05
2019-03-19T22:48:00.631Z,65.31
2019-03-19T22:50:26.775Z,65.24
2019-03-19T22:52:53.269Z,65.15
2019-03-19T22:55:28.687Z,65.13
2019-03-19T22:57:47.605Z,65.08
2019-03-19T23:00:36.724Z,64.89
2019-03-19T23:03:05.732Z,64.75
2019-03-19T23:05:32.009Z,64.71
2019-03-19T23:07:58.268Z,64.69
2019-03-19T23:10:24.739Z,64.72
2019-03-19T23:12:51.113Z,64.72
2019-03-19T23:15:17.494Z,64.81
2019-03-19T23:17:43.842Z,64.70
2019-03-19T23:20:11.853Z,64.78
2019-03-19T23:22:38.255Z,64.79
2019-03-19T23:25:05.206Z,64.91
2019-03-19T23:27:31.527Z,64.92
2019-03-19T23:29:57.753Z,64.91
2019-03-19T23:32:24.871Z,65.10
2019-03-19T23:34:51.158Z,65.40
2019-03-19T23:37:17.462Z,65.46
2019-03-19T23:39:43.651Z,65.55
2019-03-19T23:42:09.924Z,65.58
2019-03-19T23:44:36.284Z,65.62
2019-03-19T23:47:02.508Z,65.57
2019-03-19T23:49:28.822Z,65.55
2019-03-19T23:51:54.989Z,65.33
2019-03-19T23:54:21.238Z,65.17
2019-03-19T23:56:47.618Z,65.40
2019-03-19T23:59:13.842Z,65.49
